sensor_id;sensor_type;location;lat;lon;timestamp;P1;durP1;ratioP1;P2;durP2;ratioP2
24745;SDS011;12845;52.042;6.838;2023-02-28T00:00:26;19.17;;;13.95;;
24745;SDS011;12845;52.042;6.838;2023-02-28T00:02:51;19.25;;;13.40;;
24745;SDS011;12845;52.042;6.838;2023-02-28T00:05:17;21.17;;;14.70;;
24745;SDS011;12845;52.042;6.838;2023-02-28T00:07:44;20.92;;;14.40;;
24745;SDS011;12845;52.042;6.838;2023-02-28T00:10:12;21.95;;;13.90;;
24745;SDS011;12845;52.042;6.838;2023-02-28T00:12:39;20.33;;;14.00;;
24745;SDS011;12845;52.042;6.838;2023-02-28T00:15:05;21.52;;;14.48;;
24745;SDS011;12845;52.042;6.838;2023-02-28T00:17:32;19.00;;;14.05;;
24745;SDS011;12845;52.042;6.838;2023-02-28T00:19:58;19.05;;;14.07;;
24745;SDS011;12845;52.042;6.838;2023-02-28T00:22:36;19.30;;;13.57;;
24745;SDS011;12845;52.042;6.838;2023-02-28T00:25:06;21.30;;;13.43;;
24745;SDS011;12845;52.042;6.838;2023-02-28T00:27:34;18.55;;;13.68;;
24745;SDS011;12845;52.042;6.838;2023-02-28T00:30:00;18.38;;;13.70;;
24745;SDS011;12845;52.042;6.838;2023-02-28T00:32:26;19.90;;;13.93;;
24745;SDS011;12845;52.042;6.838;2023-02-28T00:34:51;19.65;;;13.80;;
24745;SDS011;12845;52.042;6.838;2023-02-28T00:37:16;22.00;;;15.18;;
24745;SDS011;12845;52.042;6.838;2023-02-28T00:39:42;21.70;;;14.93;;
24745;SDS011;12845;52.042;6.838;2023-02-28T00:42:07;19.40;;;14.38;;
24745;SDS011;12845;52.042;6.838;2023-02-28T00:44:33;19.92;;;14.95;;
24745;SDS011;12845;52.042;6.838;2023-02-28T00:46:59;21.08;;;14.20;;
24745;SDS011;12845;52.042;6.838;2023-02-28T00:49:25;19.90;;;13.88;;
24745;SDS011;12845;52.042;6.838;2023-02-28T00:51:52;21.92;;;13.70;;
24745;SDS011;12845;52.042;6.838;2023-02-28T00:54:18;19.55;;;13.63;;
24745;SDS011;12845;52.042;6.838;2023-02-28T00:56:44;19.75;;;14.35;;
24745;SDS011;12845;52.042;6.838;2023-02-28T00:59:11;19.95;;;14.57;;
24745;SDS011;12845;52.042;6.838;2023-02-28T01:01:37;19.08;;;14.32;;
24745;SDS011;12845;52.042;6.838;2023-02-28T01:04:03;17.85;;;13.02;;
24745;SDS011;12845;52.042;6.838;2023-02-28T01:06:29;18.15;;;13.43;;
24745;SDS011;12845;52.042;6.838;2023-02-28T01:08:57;20.67;;;14.23;;
24745;SDS011;12845;52.042;6.838;2023-02-28T01:11:23;16.23;;;11.87;;
24745;SDS011;12845;52.042;6.838;2023-02-28T01:13:48;17.58;;;12.20;;
24745;SDS011;12845;52.042;6.838;2023-02-28T01:16:14;20.55;;;13.80;;
24745;SDS011;12845;52.042;6.838;2023-02-28T01:18:40;18.70;;;13.15;;
24745;SDS011;12845;52.042;6.838;2023-02-28T01:21:06;20.77;;;13.57;;
24745;SDS011;12845;52.042;6.838;2023-02-28T01:23:34;19.63;;;12.93;;
24745;SDS011;12845;52.042;6.838;2023-02-28T01:26:10;19.13;;;14.30;;
24745;SDS011;12845;52.042;6.838;2023-02-28T01:28:37;19.65;;;12.93;;
24745;SDS011;12845;52.042;6.838;2023-02-28T01:31:03;17.33;;;12.80;;
24745;SDS011;12845;52.042;6.838;2023-02-28T01:33:28;17.70;;;13.00;;
24745;SDS011;12845;52.042;6.838;2023-02-28T01:36:00;18.52;;;13.57;;
24745;SDS011;12845;52.042;6.838;2023-02-28T01:38:27;21.08;;;14.00;;
24745;SDS011;12845;52.042;6.838;2023-02-28T01:40:52;18.05;;;12.77;;
24745;SDS011;12845;52.042;6.838;2023-02-28T01:45:49;18.35;;;13.18;;
24745;SDS011;12845;52.042;6.838;2023-02-28T01:48:15;20.23;;;13.15;;
24745;SDS011;12845;52.042;6.838;2023-02-28T01:50:41;16.85;;;12.98;;
24745;SDS011;12845;52.042;6.838;2023-02-28T01:55:40;17.20;;;13.43;;
24745;SDS011;12845;52.042;6.838;2023-02-28T02:00:35;20.13;;;13.52;;
24745;SDS011;12845;52.042;6.838;2023-02-28T02:03:05;19.30;;;13.13;;
24745;SDS011;12845;52.042;6.838;2023-02-28T02:05:33;18.23;;;13.98;;
24745;SDS011;12845;52.042;6.838;2023-02-28T02:08:03;18.27;;;13.52;;
24745;SDS011;12845;52.042;6.838;2023-02-28T02:32:25;20.70;;;13.20;;
24745;SDS011;12845;52.042;6.838;2023-02-28T02:37:51;16.73;;;12.35;;
24745;SDS011;12845;52.042;6.838;2023-02-28T02:40:23;17.98;;;12.18;;
24745;SDS011;12845;52.042;6.838;2023-02-28T02:42:55;15.57;;;11.52;;
24745;SDS011;12845;52.042;6.838;2023-02-28T02:48:00;17.10;;;12.10;;
24745;SDS011;12845;52.042;6.838;2023-02-28T02:50:38;18.38;;;12.95;;
24745;SDS011;12845;52.042;6.838;2023-02-28T02:53:07;16.05;;;12.30;;
24745;SDS011;12845;52.042;6.838;2023-02-28T02:55:34;19.20;;;12.77;;
24745;SDS011;12845;52.042;6.838;2023-02-28T02:58:06;17.40;;;13.30;;
24745;SDS011;12845;52.042;6.838;2023-02-28T03:00:37;16.60;;;12.15;;
24745;SDS011;12845;52.042;6.838;2023-02-28T03:03:09;19.10;;;12.35;;
24745;SDS011;12845;52.042;6.838;2023-02-28T03:05:39;18.05;;;11.82;;
24745;SDS011;12845;52.042;6.838;2023-02-28T03:08:10;17.10;;;11.23;;
24745;SDS011;12845;52.042;6.838;2023-02-28T03:27:19;13.32;;;9.70;;
24745;SDS011;12845;52.042;6.838;2023-02-28T03:30:00;12.13;;;8.73;;
24745;SDS011;12845;52.042;6.838;2023-02-28T03:32:32;14.55;;;8.80;;
24745;SDS011;12845;52.042;6.838;2023-02-28T03:35:04;13.98;;;8.73;;
24745;SDS011;12845;52.042;6.838;2023-02-28T03:37:37;12.43;;;8.48;;
24745;SDS011;12845;52.042;6.838;2023-02-28T03:40:11;11.55;;;9.43;;
24745;SDS011;12845;52.042;6.838;2023-02-28T03:42:39;12.57;;;9.23;;
24745;SDS011;12845;52.042;6.838;2023-02-28T03:45:10;14.18;;;9.40;;
24745;SDS011;12845;52.042;6.838;2023-02-28T03:47:41;14.30;;;9.00;;
24745;SDS011;12845;52.042;6.838;2023-02-28T03:50:41;13.18;;;9.30;;
24745;SDS011;12845;52.042;6.838;2023-02-28T03:55:58;12.35;;;9.95;;
24745;SDS011;12845;52.042;6.838;2023-02-28T03:58:47;12.30;;;9.43;;
24745;SDS011;12845;52.042;6.838;2023-02-28T04:01:21;13.93;;;10.25;;
24745;SDS011;12845;52.042;6.838;2023-02-28T04:03:52;13.57;;;9.65;;
24745;SDS011;12845;52.042;6.838;2023-02-28T04:06:21;14.05;;;10.60;;
24745;SDS011;12845;52.042;6.838;2023-02-28T04:08:48;15.27;;;10.15;;
24745;SDS011;12845;52.042;6.838;2023-02-28T04:13:45;13.20;;;10.40;;
24745;SDS011;12845;52.042;6.838;2023-02-28T04:16:10;16.95;;;11.07;;
24745;SDS011;12845;52.042;6.838;2023-02-28T04:18:40;14.18;;;10.63;;
24745;SDS011;12845;52.042;6.838;2023-02-28T04:21:06;15.27;;;10.70;;
24745;SDS011;12845;52.042;6.838;2023-02-28T04:23:32;16.65;;;11.57;;
24745;SDS011;12845;52.042;6.838;2023-02-28T04:25:58;13.38;;;9.45;;
24745;SDS011;12845;52.042;6.838;2023-02-28T04:28:23;15.32;;;10.43;;
24745;SDS011;12845;52.042;6.838;2023-02-28T04:30:56;15.98;;;11.43;;
24745;SDS011;12845;52.042;6.838;2023-02-28T04:33:26;14.23;;;11.00;;
24745;SDS011;12845;52.042;6.838;2023-02-28T04:36:02;13.98;;;9.95;;
24745;SDS011;12845;52.042;6.838;2023-02-28T04:38:30;17.67;;;10.82;;
24745;SDS011;12845;52.042;6.838;2023-02-28T04:40:58;14.10;;;10.57;;
24745;SDS011;12845;52.042;6.838;2023-02-28T04:43:25;17.25;;;10.55;;
24745;SDS011;12845;52.042;6.838;2023-02-28T04:45:51;14.98;;;10.85;;
24745;SDS011;12845;52.042;6.838;2023-02-28T04:48:16;19.33;;;11.43;;
24745;SDS011;12845;52.042;6.838;2023-02-28T04:50:42;13.50;;;10.85;;
24745;SDS011;12845;52.042;6.838;2023-02-28T04:53:07;14.93;;;10.38;;
24745;SDS011;12845;52.042;6.838;2023-02-28T04:55:33;16.52;;;10.93;;
24745;SDS011;12845;52.042;6.838;2023-02-28T04:57:58;14.82;;;10.60;;
24745;SDS011;12845;52.042;6.838;2023-02-28T05:00:23;15.70;;;10.73;;
24745;SDS011;12845;52.042;6.838;2023-02-28T05:02:50;18.42;;;11.35;;
24745;SDS011;12845;52.042;6.838;2023-02-28T05:05:15;14.88;;;10.48;;
24745;SDS011;12845;52.042;6.838;2023-02-28T05:07:43;12.52;;;9.77;;
24745;SDS011;12845;52.042;6.838;2023-02-28T05:10:09;15.55;;;9.98;;
24745;SDS011;12845;52.042;6.838;2023-02-28T05:12:35;12.85;;;9.43;;
24745;SDS011;12845;52.042;6.838;2023-02-28T05:15:01;14.00;;;9.77;;
24745;SDS011;12845;52.042;6.838;2023-02-28T05:17:27;13.05;;;9.38;;
24745;SDS011;12845;52.042;6.838;2023-02-28T05:19:53;15.90;;;10.75;;
24745;SDS011;12845;52.042;6.838;2023-02-28T05:22:18;13.32;;;9.75;;
24745;SDS011;12845;52.042;6.838;2023-02-28T05:24:43;12.10;;;9.23;;
24745;SDS011;12845;52.042;6.838;2023-02-28T05:27:09;14.20;;;10.60;;
24745;SDS011;12845;52.042;6.838;2023-02-28T05:29:35;15.40;;;10.75;;
24745;SDS011;12845;52.042;6.838;2023-02-28T05:32:06;15.18;;;10.43;;
24745;SDS011;12845;52.042;6.838;2023-02-28T05:37:01;18.48;;;10.02;;
24745;SDS011;12845;52.042;6.838;2023-02-28T05:39:26;17.55;;;10.90;;
24745;SDS011;12845;52.042;6.838;2023-02-28T05:41:52;17.08;;;10.60;;
24745;SDS011;12845;52.042;6.838;2023-02-28T05:44:17;14.77;;;11.35;;
24745;SDS011;12845;52.042;6.838;2023-02-28T05:46:42;14.90;;;11.40;;
24745;SDS011;12845;52.042;6.838;2023-02-28T05:49:08;15.13;;;10.95;;
24745;SDS011;12845;52.042;6.838;2023-02-28T05:51:33;19.80;;;12.27;;
24745;SDS011;12845;52.042;6.838;2023-02-28T05:54:01;15.18;;;10.40;;
24745;SDS011;12845;52.042;6.838;2023-02-28T05:56:27;18.00;;;12.20;;
24745;SDS011;12845;52.042;6.838;2023-02-28T05:58:53;18.02;;;12.15;;
24745;SDS011;12845;52.042;6.838;2023-02-28T06:01:19;18.33;;;12.25;;
24745;SDS011;12845;52.042;6.838;2023-02-28T06:03:45;19.98;;;11.75;;
24745;SDS011;12845;52.042;6.838;2023-02-28T06:06:11;18.25;;;11.90;;
24745;SDS011;12845;52.042;6.838;2023-02-28T06:08:36;17.48;;;12.27;;
24745;SDS011;12845;52.042;6.838;2023-02-28T06:11:04;17.65;;;11.60;;
24745;SDS011;12845;52.042;6.838;2023-02-28T06:13:31;21.45;;;12.07;;
24745;SDS011;12845;52.042;6.838;2023-02-28T06:16:00;15.93;;;11.88;;
24745;SDS011;12845;52.042;6.838;2023-02-28T06:18:26;21.00;;;13.45;;
24745;SDS011;12845;52.042;6.838;2023-02-28T06:20:54;15.85;;;12.93;;
24745;SDS011;12845;52.042;6.838;2023-02-28T06:23:20;19.25;;;12.73;;
24745;SDS011;12845;52.042;6.838;2023-02-28T06:25:48;19.13;;;13.88;;
24745;SDS011;12845;52.042;6.838;2023-02-28T06:28:14;18.90;;;12.82;;
24745;SDS011;12845;52.042;6.838;2023-02-28T06:30:40;22.58;;;13.68;;
24745;SDS011;12845;52.042;6.838;2023-02-28T06:33:05;19.42;;;13.48;;
24745;SDS011;12845;52.042;6.838;2023-02-28T06:35:30;19.50;;;13.20;;
24745;SDS011;12845;52.042;6.838;2023-02-28T06:37:56;18.27;;;12.80;;
24745;SDS011;12845;52.042;6.838;2023-02-28T06:40:21;19.13;;;12.52;;
24745;SDS011;12845;52.042;6.838;2023-02-28T06:42:47;20.27;;;13.55;;
24745;SDS011;12845;52.042;6.838;2023-02-28T06:45:12;19.98;;;13.98;;
24745;SDS011;12845;52.042;6.838;2023-02-28T06:47:38;18.85;;;13.02;;
24745;SDS011;12845;52.042;6.838;2023-02-28T06:50:05;18.60;;;13.40;;
24745;SDS011;12845;52.042;6.838;2023-02-28T06:52:32;21.27;;;14.05;;
24745;SDS011;12845;52.042;6.838;2023-02-28T06:54:58;21.30;;;13.88;;
24745;SDS011;12845;52.042;6.838;2023-02-28T06:57:29;17.80;;;13.23;;
24745;SDS011;12845;52.042;6.838;2023-02-28T06:59:56;22.08;;;14.38;;
24745;SDS011;12845;52.042;6.838;2023-02-28T07:02:23;19.27;;;13.63;;
24745;SDS011;12845;52.042;6.838;2023-02-28T07:04:48;21.42;;;13.93;;
24745;SDS011;12845;52.042;6.838;2023-02-28T07:07:14;19.98;;;13.88;;
24745;SDS011;12845;52.042;6.838;2023-02-28T07:09:39;17.45;;;12.57;;
24745;SDS011;12845;52.042;6.838;2023-02-28T07:12:04;18.63;;;14.13;;
24745;SDS011;12845;52.042;6.838;2023-02-28T07:14:30;17.67;;;12.40;;
24745;SDS011;12845;52.042;6.838;2023-02-28T07:16:55;20.63;;;13.60;;
24745;SDS011;12845;52.042;6.838;2023-02-28T07:19:21;20.83;;;14.05;;
24745;SDS011;12845;52.042;6.838;2023-02-28T07:21:46;19.85;;;13.52;;
24745;SDS011;12845;52.042;6.838;2023-02-28T07:24:11;18.67;;;12.55;;
24745;SDS011;12845;52.042;6.838;2023-02-28T07:26:37;17.55;;;12.82;;
24745;SDS011;12845;52.042;6.838;2023-02-28T07:29:02;17.83;;;13.15;;
24745;SDS011;12845;52.042;6.838;2023-02-28T07:31:27;20.25;;;13.02;;
24745;SDS011;12845;52.042;6.838;2023-02-28T07:33:53;17.48;;;12.57;;
24745;SDS011;12845;52.042;6.838;2023-02-28T07:36:18;18.48;;;12.00;;
24745;SDS011;12845;52.042;6.838;2023-02-28T07:38:45;14.75;;;11.52;;
24745;SDS011;12845;52.042;6.838;2023-02-28T07:41:19;14.77;;;10.68;;
24745;SDS011;12845;52.042;6.838;2023-02-28T07:43:46;17.25;;;11.05;;
24745;SDS011;12845;52.042;6.838;2023-02-28T07:46:12;13.40;;;10.18;;
24745;SDS011;12845;52.042;6.838;2023-02-28T07:48:42;13.90;;;9.43;;
24745;SDS011;12845;52.042;6.838;2023-02-28T07:51:08;15.68;;;10.32;;
24745;SDS011;12845;52.042;6.838;2023-02-28T07:53:34;13.27;;;9.25;;
24745;SDS011;12845;52.042;6.838;2023-02-28T07:56:00;12.85;;;8.00;;
24745;SDS011;12845;52.042;6.838;2023-02-28T07:58:26;12.45;;;8.38;;
24745;SDS011;12845;52.042;6.838;2023-02-28T08:00:53;14.80;;;9.43;;
24745;SDS011;12845;52.042;6.838;2023-02-28T08:03:20;12.38;;;8.60;;
24745;SDS011;12845;52.042;6.838;2023-02-28T08:05:46;12.25;;;8.85;;
24745;SDS011;12845;52.042;6.838;2023-02-28T08:08:12;10.05;;;8.00;;
24745;SDS011;12845;52.042;6.838;2023-02-28T08:10:39;12.20;;;8.15;;
24745;SDS011;12845;52.042;6.838;2023-02-28T08:13:04;11.07;;;7.15;;
24745;SDS011;12845;52.042;6.838;2023-02-28T08:15:30;11.45;;;6.72;;
24745;SDS011;12845;52.042;6.838;2023-02-28T08:17:55;9.85;;;6.82;;
24745;SDS011;12845;52.042;6.838;2023-02-28T08:20:21;11.38;;;6.30;;
24745;SDS011;12845;52.042;6.838;2023-02-28T08:22:47;11.65;;;7.18;;
24745;SDS011;12845;52.042;6.838;2023-02-28T08:25:13;9.50;;;6.53;;
24745;SDS011;12845;52.042;6.838;2023-02-28T08:27:38;8.30;;;5.28;;
24745;SDS011;12845;52.042;6.838;2023-02-28T08:30:04;8.52;;;5.40;;
24745;SDS011;12845;52.042;6.838;2023-02-28T08:32:30;9.00;;;5.38;;
24745;SDS011;12845;52.042;6.838;2023-02-28T08:34:57;8.93;;;5.10;;
24745;SDS011;12845;52.042;6.838;2023-02-28T08:37:23;7.90;;;4.53;;
24745;SDS011;12845;52.042;6.838;2023-02-28T08:39:48;8.73;;;5.15;;
24745;SDS011;12845;52.042;6.838;2023-02-28T08:42:16;8.02;;;5.60;;
24745;SDS011;12845;52.042;6.838;2023-02-28T08:44:42;8.03;;;5.37;;
24745;SDS011;12845;52.042;6.838;2023-02-28T08:47:07;8.60;;;5.50;;
24745;SDS011;12845;52.042;6.838;2023-02-28T08:49:33;9.52;;;6.15;;
24745;SDS011;12845;52.042;6.838;2023-02-28T08:51:58;6.82;;;4.95;;
24745;SDS011;12845;52.042;6.838;2023-02-28T08:54:24;7.28;;;4.90;;
24745;SDS011;12845;52.042;6.838;2023-02-28T08:56:49;7.18;;;4.40;;
24745;SDS011;12845;52.042;6.838;2023-02-28T08:59:15;6.15;;;4.32;;
24745;SDS011;12845;52.042;6.838;2023-02-28T09:01:41;7.03;;;4.95;;
24745;SDS011;12845;52.042;6.838;2023-02-28T09:04:08;9.60;;;4.88;;
24745;SDS011;12845;52.042;6.838;2023-02-28T09:06:35;7.70;;;4.90;;
24745;SDS011;12845;52.042;6.838;2023-02-28T09:09:01;9.05;;;5.13;;
24745;SDS011;12845;52.042;6.838;2023-02-28T09:11:28;9.05;;;5.15;;
24745;SDS011;12845;52.042;6.838;2023-02-28T09:13:53;7.55;;;4.80;;
24745;SDS011;12845;52.042;6.838;2023-02-28T09:16:20;8.05;;;5.70;;
24745;SDS011;12845;52.042;6.838;2023-02-28T09:18:46;8.30;;;5.53;;
24745;SDS011;12845;52.042;6.838;2023-02-28T09:21:12;7.60;;;5.57;;
24745;SDS011;12845;52.042;6.838;2023-02-28T09:23:40;10.43;;;5.25;;
24745;SDS011;12845;52.042;6.838;2023-02-28T09:26:06;8.52;;;5.45;;
24745;SDS011;12845;52.042;6.838;2023-02-28T09:28:33;7.47;;;5.20;;
24745;SDS011;12845;52.042;6.838;2023-02-28T09:30:58;7.78;;;4.65;;
24745;SDS011;12845;52.042;6.838;2023-02-28T09:33:24;7.53;;;4.63;;
24745;SDS011;12845;52.042;6.838;2023-02-28T09:35:50;7.32;;;4.65;;
24745;SDS011;12845;52.042;6.838;2023-02-28T09:38:22;7.68;;;4.47;;
24745;SDS011;12845;52.042;6.838;2023-02-28T09:40:51;6.93;;;4.65;;
24745;SDS011;12845;52.042;6.838;2023-02-28T09:43:20;7.38;;;3.85;;
24745;SDS011;12845;52.042;6.838;2023-02-28T09:45:56;6.47;;;4.25;;
24745;SDS011;12845;52.042;6.838;2023-02-28T09:48:35;6.15;;;4.03;;
24745;SDS011;12845;52.042;6.838;2023-02-28T09:51:08;6.95;;;3.08;;
24745;SDS011;12845;52.042;6.838;2023-02-28T09:53:46;4.03;;;3.20;;
24745;SDS011;12845;52.042;6.838;2023-02-28T09:56:14;3.05;;;2.28;;
24745;SDS011;12845;52.042;6.838;2023-02-28T09:58:58;5.80;;;2.75;;
24745;SDS011;12845;52.042;6.838;2023-02-28T10:07:29;3.67;;;2.00;;
24745;SDS011;12845;52.042;6.838;2023-02-28T10:09:59;3.72;;;1.80;;
24745;SDS011;12845;52.042;6.838;2023-02-28T10:12:29;2.63;;;2.05;;
24745;SDS011;12845;52.042;6.838;2023-02-28T10:14:57;3.40;;;1.60;;
24745;SDS011;12845;52.042;6.838;2023-02-28T10:17:30;3.90;;;1.73;;
24745;SDS011;12845;52.042;6.838;2023-02-28T10:20:05;2.38;;;1.50;;
24745;SDS011;12845;52.042;6.838;2023-02-28T10:22:39;3.05;;;1.90;;
24745;SDS011;12845;52.042;6.838;2023-02-28T10:25:17;2.67;;;1.70;;
24745;SDS011;12845;52.042;6.838;2023-02-28T10:27:48;3.05;;;1.63;;
24745;SDS011;12845;52.042;6.838;2023-02-28T10:30:15;2.60;;;1.70;;
24745;SDS011;12845;52.042;6.838;2023-02-28T10:32:40;3.80;;;2.15;;
24745;SDS011;12845;52.042;6.838;2023-02-28T10:37:50;4.15;;;1.98;;
24745;SDS011;12845;52.042;6.838;2023-02-28T10:42:56;2.50;;;1.70;;
24745;SDS011;12845;52.042;6.838;2023-02-28T10:45:22;2.85;;;1.73;;
24745;SDS011;12845;52.042;6.838;2023-02-28T10:47:49;3.25;;;1.30;;
24745;SDS011;12845;52.042;6.838;2023-02-28T11:04:00;2.90;;;1.67;;
24745;SDS011;12845;52.042;6.838;2023-02-28T11:06:29;3.10;;;1.58;;
24745;SDS011;12845;52.042;6.838;2023-02-28T11:09:03;2.22;;;1.25;;
24745;SDS011;12845;52.042;6.838;2023-02-28T11:11:41;1.98;;;1.20;;
24745;SDS011;12845;52.042;6.838;2023-02-28T11:14:18;2.25;;;1.50;;
24745;SDS011;12845;52.042;6.838;2023-02-28T11:16:44;4.03;;;1.40;;
24745;SDS011;12845;52.042;6.838;2023-02-28T11:19:16;3.78;;;1.38;;
24745;SDS011;12845;52.042;6.838;2023-02-28T11:21:56;3.00;;;1.20;;
24745;SDS011;12845;52.042;6.838;2023-02-28T11:24:28;2.80;;;1.50;;
24745;SDS011;12845;52.042;6.838;2023-02-28T11:26:59;4.30;;;1.33;;
24745;SDS011;12845;52.042;6.838;2023-02-28T11:32:13;1.92;;;1.40;;
24745;SDS011;12845;52.042;6.838;2023-02-28T11:34:44;1.85;;;1.15;;
24745;SDS011;12845;52.042;6.838;2023-02-28T11:37:13;2.58;;;1.38;;
24745;SDS011;12845;52.042;6.838;2023-02-28T11:39:44;5.93;;;1.48;;
24745;SDS011;12845;52.042;6.838;2023-02-28T11:42:21;2.42;;;1.50;;
24745;SDS011;12845;52.042;6.838;2023-02-28T11:45:00;2.13;;;1.40;;
24745;SDS011;12845;52.042;6.838;2023-02-28T11:47:50;2.67;;;1.40;;
24745;SDS011;12845;52.042;6.838;2023-02-28T11:50:28;2.33;;;1.23;;
24745;SDS011;12845;52.042;6.838;2023-02-28T11:53:14;2.95;;;1.60;;
24745;SDS011;12845;52.042;6.838;2023-02-28T11:55:52;3.63;;;1.40;;
24745;SDS011;12845;52.042;6.838;2023-02-28T12:01:22;3.25;;;1.55;;
24745;SDS011;12845;52.042;6.838;2023-02-28T12:10:04;2.58;;;1.48;;
24745;SDS011;12845;52.042;6.838;2023-02-28T12:18:49;2.65;;;1.42;;
24745;SDS011;12845;52.042;6.838;2023-02-28T12:24:54;3.33;;;1.73;;
24745;SDS011;12845;52.042;6.838;2023-02-28T12:27:26;3.78;;;2.00;;
24745;SDS011;12845;52.042;6.838;2023-02-28T12:30:08;6.45;;;3.42;;
24745;SDS011;12845;52.042;6.838;2023-02-28T12:32:42;3.78;;;1.95;;
24745;SDS011;12845;52.042;6.838;2023-02-28T12:35:12;9.45;;;5.43;;
24745;SDS011;12845;52.042;6.838;2023-02-28T12:37:45;7.88;;;4.70;;
24745;SDS011;12845;52.042;6.838;2023-02-28T12:40:19;3.10;;;1.95;;
24745;SDS011;12845;52.042;6.838;2023-02-28T12:42:51;3.45;;;2.35;;
24745;SDS011;12845;52.042;6.838;2023-02-28T12:47:55;24.60;;;14.68;;
24745;SDS011;12845;52.042;6.838;2023-02-28T12:50:25;4.35;;;2.45;;
24745;SDS011;12845;52.042;6.838;2023-02-28T13:06:43;3.35;;;1.90;;
24745;SDS011;12845;52.042;6.838;2023-02-28T13:09:24;5.53;;;1.80;;
24745;SDS011;12845;52.042;6.838;2023-02-28T13:11:51;2.38;;;1.67;;
24745;SDS011;12845;52.042;6.838;2023-02-28T13:16:59;2.25;;;1.50;;
24745;SDS011;12845;52.042;6.838;2023-02-28T13:19:27;4.07;;;2.00;;
24745;SDS011;12845;52.042;6.838;2023-02-28T13:21:55;4.95;;;2.75;;
24745;SDS011;12845;52.042;6.838;2023-02-28T13:27:21;5.05;;;2.60;;
24745;SDS011;12845;52.042;6.838;2023-02-28T13:29:48;6.00;;;3.97;;
24745;SDS011;12845;52.042;6.838;2023-02-28T13:32:19;5.53;;;3.38;;
24745;SDS011;12845;52.042;6.838;2023-02-28T13:47:41;2.58;;;1.98;;
24745;SDS011;12845;52.042;6.838;2023-02-28T13:50:27;3.63;;;1.88;;
24745;SDS011;12845;52.042;6.838;2023-02-28T13:53:26;3.25;;;2.08;;
24745;SDS011;12845;52.042;6.838;2023-02-28T13:57:01;2.80;;;2.00;;
24745;SDS011;12845;52.042;6.838;2023-02-28T14:02:30;4.55;;;2.15;;
24745;SDS011;12845;52.042;6.838;2023-02-28T14:05:17;3.58;;;2.20;;
24745;SDS011;12845;52.042;6.838;2023-02-28T14:07:50;3.70;;;2.30;;
24745;SDS011;12845;52.042;6.838;2023-02-28T14:10:32;4.80;;;3.40;;
24745;SDS011;12845;52.042;6.838;2023-02-28T14:15:50;6.28;;;3.58;;
24745;SDS011;12845;52.042;6.838;2023-02-28T14:18:26;4.10;;;2.40;;
24745;SDS011;12845;52.042;6.838;2023-02-28T14:20:55;10.63;;;6.30;;
24745;SDS011;12845;52.042;6.838;2023-02-28T14:37:41;3.97;;;2.33;;
24745;SDS011;12845;52.042;6.838;2023-02-28T14:40:19;4.78;;;2.85;;
24745;SDS011;12845;52.042;6.838;2023-02-28T14:42:56;5.60;;;3.38;;
24745;SDS011;12845;52.042;6.838;2023-02-28T14:45:26;4.88;;;3.60;;
24745;SDS011;12845;52.042;6.838;2023-02-28T14:47:55;7.90;;;5.47;;
24745;SDS011;12845;52.042;6.838;2023-02-28T14:50:24;8.93;;;6.28;;
24745;SDS011;12845;52.042;6.838;2023-02-28T14:53:00;3.47;;;2.70;;
24745;SDS011;12845;52.042;6.838;2023-02-28T14:55:31;3.60;;;2.25;;
24745;SDS011;12845;52.042;6.838;2023-02-28T14:58:01;5.43;;;3.67;;
24745;SDS011;12845;52.042;6.838;2023-02-28T15:00:32;4.45;;;2.83;;
24745;SDS011;12845;52.042;6.838;2023-02-28T15:02:59;3.45;;;2.53;;
24745;SDS011;12845;52.042;6.838;2023-02-28T15:05:42;4.07;;;2.30;;
24745;SDS011;12845;52.042;6.838;2023-02-28T15:08:16;4.07;;;2.75;;
24745;SDS011;12845;52.042;6.838;2023-02-28T15:11:04;5.07;;;2.85;;
24745;SDS011;12845;52.042;6.838;2023-02-28T15:13:53;4.38;;;3.05;;
24745;SDS011;12845;52.042;6.838;2023-02-28T15:16:25;4.63;;;2.70;;
24745;SDS011;12845;52.042;6.838;2023-02-28T15:19:00;4.50;;;2.22;;
24745;SDS011;12845;52.042;6.838;2023-02-28T15:21:28;3.63;;;2.38;;
24745;SDS011;12845;52.042;6.838;2023-02-28T15:24:04;3.40;;;2.45;;
24745;SDS011;12845;52.042;6.838;2023-02-28T15:26:31;6.47;;;3.30;;
24745;SDS011;12845;52.042;6.838;2023-02-28T15:29:03;5.47;;;2.78;;
24745;SDS011;12845;52.042;6.838;2023-02-28T15:31:44;4.43;;;2.38;;
24745;SDS011;12845;52.042;6.838;2023-02-28T15:34:21;3.60;;;2.10;;
24745;SDS011;12845;52.042;6.838;2023-02-28T15:39:55;4.60;;;2.53;;
24745;SDS011;12845;52.042;6.838;2023-02-28T15:42:22;10.30;;;5.60;;
24745;SDS011;12845;52.042;6.838;2023-02-28T15:44:52;7.68;;;4.40;;
24745;SDS011;12845;52.042;6.838;2023-02-28T15:47:18;6.28;;;3.17;;
24745;SDS011;12845;52.042;6.838;2023-02-28T15:49:50;4.45;;;2.45;;
24745;SDS011;12845;52.042;6.838;2023-02-28T15:52:19;4.32;;;2.20;;
24745;SDS011;12845;52.042;6.838;2023-02-28T15:54:51;5.28;;;2.35;;
24745;SDS011;12845;52.042;6.838;2023-02-28T15:57:18;4.13;;;2.40;;
24745;SDS011;12845;52.042;6.838;2023-02-28T15:59:51;5.22;;;2.50;;
24745;SDS011;12845;52.042;6.838;2023-02-28T16:02:20;3.60;;;2.72;;
24745;SDS011;12845;52.042;6.838;2023-02-28T16:04:58;3.47;;;2.53;;
24745;SDS011;12845;52.042;6.838;2023-02-28T16:07:27;7.70;;;2.88;;
24745;SDS011;12845;52.042;6.838;2023-02-28T16:09:52;4.65;;;2.70;;
24745;SDS011;12845;52.042;6.838;2023-02-28T16:12:18;6.03;;;3.13;;
24745;SDS011;12845;52.042;6.838;2023-02-28T16:14:46;4.13;;;2.97;;
24745;SDS011;12845;52.042;6.838;2023-02-28T16:17:20;4.85;;;3.30;;
24745;SDS011;12845;52.042;6.838;2023-02-28T16:19:47;4.57;;;3.35;;
24745;SDS011;12845;52.042;6.838;2023-02-28T16:22:13;10.68;;;6.18;;
24745;SDS011;12845;52.042;6.838;2023-02-28T16:24:38;32.15;;;17.20;;
24745;SDS011;12845;52.042;6.838;2023-02-28T16:27:05;9.48;;;5.22;;
24745;SDS011;12845;52.042;6.838;2023-02-28T16:29:32;4.30;;;2.97;;
24745;SDS011;12845;52.042;6.838;2023-02-28T16:32:01;5.13;;;3.10;;
24745;SDS011;12845;52.042;6.838;2023-02-28T16:34:29;6.47;;;3.88;;
24745;SDS011;12845;52.042;6.838;2023-02-28T16:36:55;5.93;;;4.07;;
24745;SDS011;12845;52.042;6.838;2023-02-28T16:39:20;5.60;;;3.55;;
24745;SDS011;12845;52.042;6.838;2023-02-28T16:41:46;6.50;;;3.45;;
24745;SDS011;12845;52.042;6.838;2023-02-28T16:44:14;7.47;;;4.63;;
24745;SDS011;12845;52.042;6.838;2023-02-28T16:46:52;7.72;;;5.85;;
24745;SDS011;12845;52.042;6.838;2023-02-28T16:49:18;7.72;;;4.88;;
24745;SDS011;12845;52.042;6.838;2023-02-28T16:51:43;5.35;;;4.13;;
24745;SDS011;12845;52.042;6.838;2023-02-28T16:54:09;6.28;;;3.97;;
24745;SDS011;12845;52.042;6.838;2023-02-28T16:56:34;6.32;;;3.90;;
24745;SDS011;12845;52.042;6.838;2023-02-28T16:59:00;6.13;;;3.83;;
24745;SDS011;12845;52.042;6.838;2023-02-28T17:01:26;14.35;;;8.20;;
24745;SDS011;12845;52.042;6.838;2023-02-28T17:03:52;11.88;;;7.00;;
24745;SDS011;12845;52.042;6.838;2023-02-28T17:06:19;6.97;;;4.85;;
24745;SDS011;12845;52.042;6.838;2023-02-28T17:08:47;7.78;;;5.50;;
24745;SDS011;12845;52.042;6.838;2023-02-28T17:11:14;12.50;;;8.20;;
24745;SDS011;12845;52.042;6.838;2023-02-28T17:13:39;12.80;;;8.63;;
24745;SDS011;12845;52.042;6.838;2023-02-28T17:16:04;11.38;;;7.60;;
24745;SDS011;12845;52.042;6.838;2023-02-28T17:18:30;11.65;;;8.35;;
24745;SDS011;12845;52.042;6.838;2023-02-28T17:20:59;10.23;;;8.67;;
24745;SDS011;12845;52.042;6.838;2023-02-28T17:23:25;10.63;;;7.38;;
24745;SDS011;12845;52.042;6.838;2023-02-28T17:25:50;13.43;;;9.38;;
24745;SDS011;12845;52.042;6.838;2023-02-28T17:28:19;12.48;;;9.05;;
24745;SDS011;12845;52.042;6.838;2023-02-28T17:30:46;14.55;;;10.18;;